createdAt,value
2023-04-26T00:00:18.736Z,63.97
2023-04-26T00:01:18.764Z,65.35
2023-04-26T00:02:18.897Z,65.49
2023-04-26T00:03:18.947Z,66.00
2023-04-26T00:04:19.013Z,66.57
2023-04-26T00:05:19.019Z,66.44
2023-04-26T00:06:18.895Z,66.03
2023-04-26T00:07:18.985Z,64.82
2023-04-26T00:08:19.054Z,64.90
2023-04-26T00:09:19.000Z,64.91
2023-04-26T00:10:19.034Z,64.61
2023-04-26T00:11:19.064Z,65.83
2023-04-26T00:12:19.091Z,65.91
2023-04-26T00:13:19.069Z,64.96
2023-04-26T00:14:19.136Z,66.23
2023-04-26T00:15:19.128Z,65.40
2023-04-26T00:16:19.191Z,64.76
2023-04-26T00:17:19.239Z,65.19
2023-04-26T00:18:19.264Z,65.93
2023-04-26T00:19:19.291Z,65.10
2023-04-26T00:20:19.274Z,64.34
2023-04-26T00:21:19.292Z,64.73
2023-04-26T00:22:19.335Z,64.42
2023-04-26T00:23:19.391Z,63.91
2023-04-26T00:24:19.399Z,63.91
2023-04-26T00:25:19.397Z,63.68
2023-04-26T00:26:19.431Z,64.77
2023-04-26T00:27:19.444Z,65.14
2023-04-26T00:28:19.527Z,65.78
2023-04-26T00:29:19.561Z,65.02
2023-04-26T00:30:19.602Z,64.39
2023-04-26T00:31:19.738Z,64.34
2023-04-26T00:32:19.655Z,63.82
2023-04-26T00:33:19.699Z,63.85
2023-04-26T00:34:19.719Z,63.85
2023-04-26T00:35:19.779Z,63.65
2023-04-26T00:36:19.811Z,64.05
2023-04-26T00:37:19.833Z,64.22
2023-04-26T00:38:19.883Z,62.93
2023-04-26T00:39:19.910Z,62.57
2023-04-26T00:40:19.971Z,62.75
2023-04-26T00:41:20.040Z,62.17
2023-04-26T00:42:19.985Z,62.62
2023-04-26T00:43:20.045Z,62.67
2023-04-26T00:44:20.065Z,62.96
2023-04-26T00:45:20.093Z,62.63
2023-04-26T00:46:20.323Z,62.73
2023-04-26T00:47:20.147Z,63.20
2023-04-26T00:48:20.158Z,63.57
2023-04-26T00:49:20.170Z,64.12
2023-04-26T00:50:20.353Z,63.93
2023-04-26T00:51:20.225Z,63.54
2023-04-26T00:52:20.257Z,63.34
2023-04-26T00:53:20.301Z,63.89
2023-04-26T00:54:20.293Z,63.67
2023-04-26T00:55:20.331Z,63.69
2023-04-26T00:56:20.364Z,63.33
2023-04-26T00:57:20.377Z,63.31
2023-04-26T00:58:20.365Z,63.55
2023-04-26T00:59:20.424Z,63.74
2023-04-26T01:00:20.432Z,63.39
2023-04-26T01:01:20.461Z,63.46
2023-04-26T01:02:20.510Z,64.11
2023-04-26T01:03:20.631Z,64.07
2023-04-26T01:04:20.618Z,63.75
2023-04-26T01:05:20.485Z,63.81
2023-04-26T01:06:20.538Z,63.90
2023-04-26T01:07:20.588Z,63.82
2023-04-26T01:08:20.667Z,63.92
2023-04-26T01:09:20.610Z,63.27
2023-04-26T01:10:20.658Z,63.34
2023-04-26T01:11:20.665Z,63.55
2023-04-26T01:12:20.667Z,64.22
2023-04-26T01:13:20.712Z,63.87
2023-04-26T01:14:20.736Z,63.89
2023-04-26T01:15:20.780Z,64.42
2023-04-26T01:16:20.873Z,64.42
2023-04-26T01:17:20.901Z,64.94
2023-04-26T01:18:20.954Z,64.75
2023-04-26T01:19:20.963Z,64.57
2023-04-26T01:20:20.998Z,64.23
2023-04-26T01:21:21.028Z,64.44
2023-04-26T01:22:21.060Z,64.88
2023-04-26T01:23:21.079Z,65.26
2023-04-26T01:24:21.128Z,65.48
2023-04-26T01:25:21.134Z,65.14
2023-04-26T01:26:21.163Z,65.37
2023-04-26T01:27:21.192Z,65.96
2023-04-26T01:28:21.198Z,66.11
2023-04-26T01:29:21.318Z,66.46
2023-04-26T01:30:21.278Z,65.66
2023-04-26T01:31:21.483Z,65.66
2023-04-26T01:32:21.334Z,66.06
2023-04-26T01:33:21.386Z,66.36
2023-04-26T01:34:21.363Z,66.41
2023-04-26T01:35:21.368Z,66.58
2023-04-26T01:36:21.428Z,66.55
2023-04-26T01:37:21.498Z,66.45
2023-04-26T01:38:21.543Z,66.30
2023-04-26T01:39:21.559Z,66.24
2023-04-26T01:40:21.548Z,66.56
2023-04-26T01:41:21.602Z,66.40
2023-04-26T01:42:21.622Z,66.51
2023-04-26T01:43:21.672Z,66.29
2023-04-26T01:44:21.637Z,66.00
2023-04-26T01:45:21.688Z,66.06
2023-04-26T01:46:21.771Z,66.57
2023-04-26T01:47:21.796Z,67.31
2023-04-26T01:48:21.802Z,67.40
2023-04-26T01:49:21.805Z,67.41
2023-04-26T01:50:21.861Z,67.25
2023-04-26T01:51:21.935Z,67.39
2023-04-26T01:52:21.894Z,66.91
2023-04-26T01:53:21.966Z,67.34
2023-04-26T01:54:21.983Z,67.14
2023-04-26T01:55:22.057Z,66.45
2023-04-26T01:56:22.060Z,66.17
2023-04-26T01:57:22.056Z,66.13
2023-04-26T01:58:22.118Z,66.42
2023-04-26T01:59:22.127Z,66.44
2023-04-26T02:00:22.212Z,66.63
2023-04-26T02:01:22.329Z,66.53
2023-04-26T02:02:22.333Z,66.72
2023-04-26T02:03:22.332Z,66.76
2023-04-26T02:04:22.314Z,66.64
2023-04-26T02:05:22.541Z,66.41
2023-04-26T02:06:22.432Z,66.66
2023-04-26T02:07:22.440Z,66.34
2023-04-26T02:08:22.454Z,66.11
2023-04-26T02:09:22.507Z,66.54
2023-04-26T02:10:22.499Z,66.41
2023-04-26T02:11:22.554Z,66.44
2023-04-26T02:12:22.647Z,66.12
2023-04-26T02:13:22.657Z,66.53
2023-04-26T02:14:22.663Z,67.13
2023-04-26T02:15:22.669Z,67.39
2023-04-26T02:16:22.784Z,66.39
2023-04-26T02:17:22.763Z,66.35
2023-04-26T02:18:22.751Z,65.77
2023-04-26T02:19:22.788Z,66.07
2023-04-26T02:20:22.824Z,66.38
2023-04-26T02:21:22.846Z,66.22
2023-04-26T02:22:22.892Z,65.54
2023-04-26T02:23:22.905Z,65.83
2023-04-26T02:24:22.965Z,66.06
2023-04-26T02:25:22.981Z,66.40
2023-04-26T02:26:22.962Z,66.64
2023-04-26T02:27:23.023Z,65.87
2023-04-26T02:28:23.011Z,65.54
2023-04-26T02:29:39.895Z,65.87
2023-04-26T02:30:24.037Z,65.63
2023-04-26T02:31:23.303Z,65.74
2023-04-26T02:32:23.013Z,65.62
2023-04-26T02:33:23.012Z,65.50
2023-04-26T02:34:23.019Z,65.90
2023-04-26T02:35:22.971Z,65.58
2023-04-26T02:36:22.978Z,65.68
2023-04-26T02:37:22.991Z,65.86
2023-04-26T02:38:22.972Z,66.13
2023-04-26T02:39:22.977Z,66.39
2023-04-26T02:40:23.001Z,66.61
2023-04-26T02:41:22.948Z,66.21
2023-04-26T02:42:22.952Z,66.74
2023-04-26T02:43:23.007Z,67.17
2023-04-26T02:44:23.071Z,67.11
2023-04-26T02:45:23.150Z,66.91
2023-04-26T02:46:23.135Z,67.01
2023-04-26T02:47:23.257Z,67.41
2023-04-26T02:48:23.216Z,67.40
2023-04-26T02:49:23.256Z,67.93
2023-04-26T02:50:23.276Z,68.06
2023-04-26T02:51:23.326Z,67.80
2023-04-26T02:52:23.361Z,67.84
2023-04-26T02:53:23.354Z,67.51
2023-04-26T02:54:23.363Z,67.31
2023-04-26T02:55:23.444Z,67.29
2023-04-26T02:56:23.457Z,67.08
2023-04-26T02:57:23.521Z,66.87
2023-04-26T02:58:23.515Z,67.31
2023-04-26T02:59:23.532Z,67.17
2023-04-26T03:00:23.605Z,66.87
2023-04-26T03:01:23.644Z,67.37
2023-04-26T03:02:23.817Z,67.31
2023-04-26T03:03:23.838Z,67.80
2023-04-26T03:04:23.834Z,67.40
2023-04-26T03:05:23.731Z,66.90
2023-04-26T03:06:23.755Z,66.92
2023-04-26T03:07:23.792Z,66.97
2023-04-26T03:08:23.799Z,67.53
2023-04-26T03:09:23.848Z,67.71
2023-04-26T03:10:23.875Z,67.41
2023-04-26T03:11:23.945Z,66.82
2023-04-26T03:12:23.972Z,66.88
2023-04-26T03:13:24.021Z,66.84
2023-04-26T03:14:24.028Z,66.29
2023-04-26T03:15:24.035Z,65.94
2023-04-26T03:16:24.130Z,65.68
2023-04-26T03:17:24.129Z,65.39
2023-04-26T03:18:24.072Z,65.43
2023-04-26T03:19:24.098Z,65.94
2023-04-26T03:20:24.151Z,66.05
2023-04-26T03:21:24.167Z,66.54
2023-04-26T03:22:24.176Z,66.88
2023-04-26T03:23:24.220Z,66.82
2023-04-26T03:24:24.203Z,66.64
2023-04-26T03:25:24.240Z,66.80
2023-04-26T03:26:24.260Z,66.92
2023-04-26T03:27:24.283Z,66.69
2023-04-26T03:28:24.287Z,66.11
2023-04-26T03:29:24.284Z,65.87
2023-04-26T03:30:24.321Z,66.15
2023-04-26T03:31:24.365Z,66.15
2023-04-26T03:32:24.354Z,66.17
2023-04-26T03:33:24.402Z,66.36
2023-04-26T03:34:24.461Z,66.84
2023-04-26T03:35:24.467Z,66.78
2023-04-26T03:36:25.442Z,66.15
2023-04-26T03:37:24.530Z,66.27
2023-04-26T03:38:24.533Z,66.53
2023-04-26T03:39:24.579Z,66.66
2023-04-26T03:40:24.623Z,66.94
2023-04-26T03:41:24.617Z,67.47
2023-04-26T03:42:24.677Z,67.77
2023-04-26T03:43:24.719Z,67.65
2023-04-26T03:44:24.749Z,67.64
2023-04-26T03:45:24.786Z,67.57
2023-04-26T03:46:24.862Z,67.63
2023-04-26T03:47:24.849Z,67.48
2023-04-26T03:48:24.851Z,67.57
2023-04-26T03:49:24.836Z,67.74
2023-04-26T03:50:24.957Z,67.65
2023-04-26T03:51:24.952Z,67.20
2023-04-26T03:52:25.035Z,67.29
2023-04-26T03:53:25.031Z,67.22
2023-04-26T03:54:25.079Z,67.09
2023-04-26T03:55:25.106Z,66.92
2023-04-26T03:56:25.118Z,67.35
2023-04-26T03:57:25.157Z,68.15
2023-04-26T03:58:25.215Z,68.30
2023-04-26T03:59:25.228Z,68.57
2023-04-26T04:00:25.283Z,68.54
2023-04-26T04:01:25.346Z,68.83
2023-04-26T04:02:25.397Z,68.75
2023-04-26T04:03:25.501Z,68.32
2023-04-26T04:04:25.586Z,68.70
2023-04-26T04:05:25.450Z,68.97
2023-04-26T04:06:25.456Z,69.12
2023-04-26T04:07:25.479Z,69.06
2023-04-26T04:08:25.547Z,69.10
2023-04-26T04:09:25.545Z,69.04
2023-04-26T04:10:25.600Z,69.56
2023-04-26T04:11:25.664Z,69.51
2023-04-26T04:12:25.638Z,69.44
2023-04-26T04:13:25.642Z,69.44
2023-04-26T04:14:25.645Z,69.42
2023-04-26T04:15:25.690Z,69.16
2023-04-26T04:16:25.827Z,69.02
2023-04-26T04:17:25.827Z,68.96
2023-04-26T04:18:25.844Z,69.03
2023-04-26T04:19:25.856Z,69.04
2023-04-26T04:20:25.913Z,69.04
2023-04-26T04:21:25.949Z,68.74
2023-04-26T04:22:26.001Z,69.44
2023-04-26T04:23:26.037Z,69.84
2023-04-26T04:24:26.015Z,70.24
2023-04-26T04:25:26.047Z,69.64
2023-04-26T04:26:26.071Z,69.74
2023-04-26T04:27:26.138Z,70.08
2023-04-26T04:28:26.166Z,70.20
2023-04-26T04:29:26.186Z,70.13
2023-04-26T04:30:26.471Z,70.02
2023-04-26T04:31:26.278Z,70.03
2023-04-26T04:32:26.306Z,70.15
2023-04-26T04:33:26.251Z,69.96
2023-04-26T04:34:26.347Z,70.11
2023-04-26T04:35:26.322Z,70.50
2023-04-26T04:36:26.308Z,70.34
2023-04-26T04:37:26.398Z,70.39
2023-04-26T04:38:26.409Z,70.35
2023-04-26T04:39:26.440Z,69.89
2023-04-26T04:40:26.465Z,69.84
2023-04-26T04:41:26.456Z,69.90
2023-04-26T04:42:26.500Z,69.68
2023-04-26T04:43:26.497Z,69.66
2023-04-26T04:44:26.488Z,69.37
2023-04-26T04:45:26.526Z,69.64
2023-04-26T04:46:26.573Z,69.32
2023-04-26T04:47:26.604Z,69.52
2023-04-26T04:48:26.619Z,69.83
2023-04-26T04:49:26.650Z,69.73
2023-04-26T04:50:26.712Z,69.53
2023-04-26T04:51:26.737Z,69.26
2023-04-26T04:52:26.734Z,68.71
2023-04-26T04:53:26.773Z,68.67
2023-04-26T04:54:26.792Z,68.39
2023-04-26T04:55:26.811Z,68.21
2023-04-26T04:56:26.893Z,68.20
2023-04-26T04:57:26.925Z,68.19
2023-04-26T04:58:26.960Z,67.95
2023-04-26T04:59:28.018Z,67.62
2023-04-26T05:00:27.014Z,67.58
2023-04-26T05:01:27.067Z,68.32
2023-04-26T05:02:27.229Z,68.48
2023-04-26T05:03:27.205Z,68.19
2023-04-26T05:04:27.319Z,68.41
2023-04-26T05:05:27.134Z,67.95
2023-04-26T05:06:27.182Z,67.98
2023-04-26T05:07:29.049Z,68.01
2023-04-26T05:08:27.242Z,67.93
2023-04-26T05:09:27.244Z,67.84
2023-04-26T05:10:27.292Z,67.72
2023-04-26T05:11:27.292Z,67.13
2023-04-26T05:12:27.334Z,66.64
2023-04-26T05:13:27.356Z,66.62
2023-04-26T05:14:27.424Z,66.68
2023-04-26T05:15:27.493Z,66.97
2023-04-26T05:16:27.501Z,67.01
2023-04-26T05:17:27.523Z,67.04
2023-04-26T05:18:27.565Z,66.72
2023-04-26T05:19:27.549Z,66.66
2023-04-26T05:20:27.576Z,66.42
2023-04-26T05:21:27.621Z,66.50
2023-04-26T05:22:27.675Z,66.64
2023-04-26T05:23:27.677Z,66.16
2023-04-26T05:24:27.693Z,66.27
2023-04-26T05:25:27.762Z,66.69
2023-04-26T05:26:27.759Z,66.57
2023-04-26T05:27:27.866Z,66.46
2023-04-26T05:28:27.861Z,66.34
2023-04-26T05:29:27.924Z,66.46
2023-04-26T05:30:27.948Z,66.35
2023-04-26T05:31:28.037Z,65.83
2023-04-26T05:32:28.044Z,65.58
2023-04-26T05:33:28.120Z,65.67
2023-04-26T05:34:28.130Z,65.44
2023-04-26T05:35:28.162Z,65.33
2023-04-26T05:36:29.978Z,65.23
2023-04-26T05:37:28.158Z,65.19
2023-04-26T05:38:28.271Z,65.04
2023-04-26T05:39:28.274Z,64.90
2023-04-26T05:40:28.276Z,65.18
2023-04-26T05:41:28.452Z,64.99
2023-04-26T05:42:28.474Z,65.37
2023-04-26T05:43:28.351Z,65.36
2023-04-26T05:44:28.380Z,64.92
2023-04-26T05:45:28.423Z,65.48
2023-04-26T05:46:28.492Z,66.14
2023-04-26T05:47:28.536Z,66.68
2023-04-26T05:48:28.546Z,67.33
2023-04-26T05:49:28.566Z,67.49
2023-04-26T05:50:28.620Z,68.25
2023-04-26T05:51:28.630Z,68.68
2023-04-26T05:52:29.010Z,69.07
2023-04-26T05:53:28.692Z,69.02
2023-04-26T05:54:28.709Z,68.62
2023-04-26T05:55:28.757Z,67.80
2023-04-26T05:56:28.817Z,67.92
2023-04-26T05:57:28.865Z,67.24
2023-04-26T05:58:28.876Z,66.80
2023-04-26T05:59:28.820Z,66.88
2023-04-26T06:00:28.900Z,67.23
2023-04-26T06:01:28.932Z,66.89
2023-04-26T06:02:29.063Z,66.69
2023-04-26T06:03:29.256Z,65.98
2023-04-26T06:04:29.690Z,65.20
2023-04-26T06:05:29.250Z,65.51
2023-04-26T06:06:29.068Z,65.64
2023-04-26T06:07:29.478Z,66.00
2023-04-26T06:08:29.098Z,65.99
2023-04-26T06:09:29.152Z,65.76
2023-04-26T06:10:29.188Z,65.18
2023-04-26T06:11:29.139Z,64.78
2023-04-26T06:12:29.168Z,64.38
2023-04-26T06:13:29.469Z,63.94
2023-04-26T06:14:30.360Z,63.26
2023-04-26T06:15:29.249Z,63.08
2023-04-26T06:16:29.431Z,62.15
2023-04-26T06:17:29.354Z,62.23
2023-04-26T06:18:29.502Z,62.05
2023-04-26T06:19:29.378Z,61.14
2023-04-26T06:20:29.533Z,60.81
2023-04-26T06:21:29.422Z,61.31
2023-04-26T06:22:29.464Z,61.27
2023-04-26T06:23:29.493Z,61.31
2023-04-26T06:24:29.548Z,61.12
2023-04-26T06:25:29.546Z,61.69
2023-04-26T06:26:29.572Z,60.99
2023-04-26T06:27:29.566Z,60.70
2023-04-26T06:28:29.713Z,59.72
2023-04-26T06:29:29.979Z,59.62
2023-04-26T06:30:29.651Z,60.33
2023-04-26T06:31:29.667Z,59.79
2023-04-26T06:32:29.703Z,60.45
2023-04-26T06:33:30.001Z,59.58
2023-04-26T06:34:29.756Z,59.88
2023-04-26T06:35:29.689Z,59.43
2023-04-26T06:36:29.957Z,60.70
2023-04-26T06:37:29.754Z,60.46
2023-04-26T06:38:29.728Z,59.57
2023-04-26T06:39:29.977Z,59.74
2023-04-26T06:40:29.855Z,59.11
2023-04-26T06:41:29.850Z,58.93
2023-04-26T06:42:29.904Z,58.94
2023-04-26T06:43:29.827Z,58.63
2023-04-26T06:44:29.868Z,59.35
2023-04-26T06:45:29.878Z,59.36
2023-04-26T06:46:29.957Z,59.86
2023-04-26T06:47:29.976Z,59.07
2023-04-26T06:48:30.002Z,60.03
2023-04-26T06:49:30.044Z,60.01
2023-04-26T06:50:30.080Z,59.48
2023-04-26T06:51:30.125Z,59.26
2023-04-26T06:52:30.186Z,58.99
2023-04-26T06:53:30.171Z,59.65
2023-04-26T06:54:30.244Z,59.63
2023-04-26T06:55:30.288Z,59.39
2023-04-26T06:56:30.381Z,59.08
2023-04-26T06:57:30.380Z,59.20
2023-04-26T06:58:30.516Z,58.70
2023-04-26T06:59:30.470Z,58.01
2023-04-26T07:00:30.610Z,58.18
2023-04-26T07:01:30.589Z,57.68
2023-04-26T07:02:30.721Z,56.91
2023-04-26T07:03:31.105Z,57.41
2023-04-26T07:04:31.276Z,57.61
2023-04-26T07:05:30.657Z,57.31
2023-04-26T07:06:30.673Z,56.99
2023-04-26T07:07:30.700Z,57.61
2023-04-26T07:08:30.977Z,58.25
2023-04-26T07:09:30.755Z,58.24
2023-04-26T07:10:30.796Z,57.31
2023-04-26T07:11:30.772Z,57.55
2023-04-26T07:12:30.856Z,57.40
2023-04-26T07:13:30.815Z,56.30
2023-04-26T07:14:30.826Z,55.92
2023-04-26T07:15:30.804Z,55.84
2023-04-26T07:16:30.942Z,56.54
2023-04-26T07:17:31.048Z,56.61
2023-04-26T07:18:30.925Z,57.39
2023-04-26T07:19:31.223Z,57.08
2023-04-26T07:20:32.039Z,56.43
2023-04-26T07:21:30.999Z,56.36
2023-04-26T07:22:30.990Z,55.62
2023-04-26T07:23:31.490Z,55.19
2023-04-26T07:24:31.144Z,54.54
2023-04-26T07:25:31.156Z,53.76
2023-04-26T07:26:31.215Z,54.30
2023-04-26T07:27:31.263Z,53.57
2023-04-26T07:28:31.316Z,53.05
2023-04-26T07:29:31.485Z,52.88
2023-04-26T07:30:31.616Z,52.93
2023-04-26T07:31:31.513Z,53.70
2023-04-26T07:32:31.458Z,53.94
2023-04-26T07:33:32.167Z,53.32
2023-04-26T07:34:31.525Z,53.86
2023-04-26T07:35:31.557Z,53.33
2023-04-26T07:36:32.000Z,52.06
2023-04-26T07:37:31.997Z,52.01
2023-04-26T07:38:31.980Z,51.64
2023-04-26T07:39:32.014Z,51.41
2023-04-26T07:40:31.764Z,51.03
2023-04-26T07:41:31.767Z,51.09
2023-04-26T07:42:31.785Z,51.30
2023-04-26T07:43:31.804Z,52.12
2023-04-26T07:44:31.986Z,52.36
2023-04-26T07:45:31.903Z,53.70
2023-04-26T07:46:31.891Z,53.40
2023-04-26T07:47:31.873Z,52.21
2023-04-26T07:48:31.887Z,50.92
2023-04-26T07:49:32.031Z,51.22
2023-04-26T07:50:31.961Z,51.11
2023-04-26T07:51:31.998Z,51.08
2023-04-26T07:52:32.012Z,49.81
2023-04-26T07:53:32.004Z,50.05
2023-04-26T07:54:32.510Z,49.74
2023-04-26T07:55:32.046Z,48.88
2023-04-26T07:56:32.060Z,48.45
2023-04-26T07:57:32.123Z,48.57
2023-04-26T07:58:32.148Z,49.11
2023-04-26T07:59:32.505Z,48.81
2023-04-26T08:00:32.227Z,48.43
2023-04-26T08:01:32.224Z,48.18
2023-04-26T08:02:44.030Z,48.13
2023-04-26T08:03:33.457Z,47.90
2023-04-26T08:04:32.360Z,48.83
2023-04-26T08:05:32.521Z,49.37
2023-04-26T08:06:32.215Z,50.50
2023-04-26T08:07:32.233Z,49.59
2023-04-26T08:08:32.253Z,49.60
2023-04-26T08:09:32.233Z,48.72
2023-04-26T08:10:32.206Z,46.90
2023-04-26T08:11:32.553Z,47.29
2023-04-26T08:12:32.178Z,48.00
2023-04-26T08:13:32.199Z,48.08
2023-04-26T08:14:32.160Z,46.49
2023-04-26T08:15:32.179Z,45.80
2023-04-26T08:16:32.518Z,44.87
2023-04-26T08:17:32.250Z,44.83
2023-04-26T08:18:32.277Z,43.49
2023-04-26T08:19:32.313Z,44.26
2023-04-26T08:20:32.312Z,44.21
2023-04-26T08:21:32.351Z,44.85
2023-04-26T08:22:32.442Z,44.29
2023-04-26T08:23:32.401Z,44.91
2023-04-26T08:24:32.533Z,43.19
2023-04-26T08:25:32.553Z,42.89
2023-04-26T08:26:33.003Z,43.25
2023-04-26T08:27:32.559Z,42.47
2023-04-26T08:28:32.588Z,42.70
2023-04-26T08:29:32.594Z,43.56
2023-04-26T08:30:32.736Z,44.56
2023-04-26T08:31:32.730Z,44.91
2023-04-26T08:32:32.837Z,43.01
2023-04-26T08:33:32.729Z,42.51
2023-04-26T08:34:32.844Z,42.03
2023-04-26T08:35:32.785Z,41.47
2023-04-26T08:36:32.808Z,41.40
2023-04-26T08:37:32.873Z,42.44
2023-04-26T08:38:32.898Z,43.92
2023-04-26T08:39:32.952Z,42.28
2023-04-26T08:40:32.965Z,42.34
2023-04-26T08:41:32.955Z,41.81
2023-04-26T08:42:33.045Z,41.56
2023-04-26T08:43:33.028Z,41.44
2023-04-26T08:44:33.113Z,39.76
2023-04-26T08:45:33.165Z,40.04
2023-04-26T08:46:33.180Z,40.31
2023-04-26T08:47:33.255Z,41.99
2023-04-26T08:48:33.250Z,43.33
2023-04-26T08:49:33.497Z,42.97
2023-04-26T08:50:33.268Z,42.18
2023-04-26T08:51:33.323Z,41.58
2023-04-26T08:52:33.352Z,41.43
2023-04-26T08:53:33.350Z,40.87
2023-04-26T08:54:33.358Z,41.36
2023-04-26T08:55:33.403Z,41.36
2023-04-26T08:56:33.414Z,40.40
2023-04-26T08:57:33.496Z,39.30
2023-04-26T08:58:33.522Z,39.05
2023-04-26T08:59:33.552Z,38.58
2023-04-26T09:00:33.555Z,38.93
2023-04-26T09:01:33.648Z,38.65
2023-04-26T09:02:33.703Z,38.09
2023-04-26T09:03:34.115Z,37.43
2023-04-26T09:04:33.800Z,35.46
2023-04-26T09:05:33.688Z,35.23
2023-04-26T09:06:33.782Z,35.05
2023-04-26T09:07:33.748Z,34.68
2023-04-26T09:08:33.780Z,36.79
2023-04-26T09:09:33.998Z,36.29
2023-04-26T09:10:34.005Z,36.46
2023-04-26T09:11:34.027Z,34.43
2023-04-26T09:12:33.864Z,34.19
2023-04-26T09:13:33.924Z,33.93
2023-04-26T09:14:34.007Z,35.09
2023-04-26T09:15:33.980Z,36.07
2023-04-26T09:16:34.062Z,35.26
2023-04-26T09:17:34.067Z,34.67
2023-04-26T09:18:34.276Z,33.55
2023-04-26T09:19:34.128Z,33.46
2023-04-26T09:20:34.522Z,33.11
2023-04-26T09:21:34.155Z,31.76
2023-04-26T09:22:34.226Z,32.24
2023-04-26T09:23:34.242Z,33.29
2023-04-26T09:24:34.273Z,33.95
2023-04-26T09:25:34.330Z,34.27
2023-04-26T09:26:34.327Z,34.54
2023-04-26T09:27:34.398Z,34.37
2023-04-26T09:28:34.512Z,33.68
2023-04-26T09:29:34.503Z,33.75
2023-04-26T09:30:34.483Z,32.41
2023-04-26T09:31:34.574Z,31.46
2023-04-26T09:32:34.615Z,32.27
2023-04-26T09:33:34.577Z,32.97
2023-04-26T09:34:34.664Z,32.49
2023-04-26T09:35:34.747Z,32.35
2023-04-26T09:36:34.709Z,32.07
2023-04-26T09:37:34.707Z,31.52
2023-04-26T09:38:34.791Z,31.02
2023-04-26T09:39:34.798Z,30.27
2023-04-26T09:40:34.857Z,29.53
2023-04-26T09:41:34.907Z,29.92
2023-04-26T09:42:34.874Z,30.66
2023-04-26T09:43:35.893Z,31.01
2023-04-26T09:44:35.000Z,30.10
2023-04-26T09:45:35.050Z,30.14
2023-04-26T09:46:35.072Z,30.80
2023-04-26T09:47:35.153Z,29.96
2023-04-26T09:48:35.178Z,29.95
2023-04-26T09:49:35.128Z,30.63
2023-04-26T09:50:35.179Z,30.48
2023-04-26T09:51:35.250Z,29.13
2023-04-26T09:52:35.208Z,28.79
2023-04-26T09:53:35.236Z,29.09
2023-04-26T09:54:35.405Z,28.42
2023-04-26T09:55:36.051Z,30.17
2023-04-26T09:56:35.362Z,28.88
2023-04-26T09:57:35.333Z,28.26
2023-04-26T09:58:35.352Z,28.90
2023-04-26T09:59:35.387Z,28.23
2023-04-26T10:00:35.417Z,29.13
2023-04-26T10:01:35.536Z,28.97
2023-04-26T10:02:35.533Z,28.53
2023-04-26T10:03:35.676Z,27.60
2023-04-26T10:04:35.600Z,27.88
2023-04-26T10:05:35.559Z,26.72
2023-04-26T10:06:35.582Z,26.60
2023-04-26T10:07:35.606Z,26.68
2023-04-26T10:08:35.601Z,26.70
2023-04-26T10:09:35.652Z,26.26
2023-04-26T10:10:35.708Z,26.21
2023-04-26T10:11:35.729Z,27.03
2023-04-26T10:12:35.788Z,26.87
2023-04-26T10:13:35.779Z,27.36
2023-04-26T10:14:35.824Z,27.24
2023-04-26T10:15:35.868Z,26.96
2023-04-26T10:16:35.866Z,26.08
2023-04-26T10:17:35.916Z,26.53
2023-04-26T10:18:35.932Z,27.17
2023-04-26T10:19:36.001Z,25.67
2023-04-26T10:20:36.031Z,26.32
2023-04-26T10:21:36.038Z,27.39
2023-04-26T10:22:36.069Z,26.65
2023-04-26T10:23:36.519Z,25.35
2023-04-26T10:24:36.568Z,25.69
2023-04-26T10:25:36.544Z,26.26
2023-04-26T10:26:36.122Z,26.73
2023-04-26T10:27:36.195Z,25.52
2023-04-26T10:28:36.221Z,26.11
2023-04-26T10:29:36.524Z,25.75
2023-04-26T10:30:36.532Z,25.60
2023-04-26T10:31:36.399Z,25.41
2023-04-26T10:32:36.390Z,24.95
2023-04-26T10:33:36.528Z,25.14
2023-04-26T10:34:36.429Z,25.87
2023-04-26T10:35:36.550Z,26.15
2023-04-26T10:36:36.547Z,25.05
2023-04-26T10:37:37.038Z,25.71
2023-04-26T10:38:37.095Z,26.08
2023-04-26T10:39:37.060Z,25.82
2023-04-26T10:40:36.711Z,26.09
2023-04-26T10:41:36.690Z,25.72
2023-04-26T10:42:36.849Z,24.86
2023-04-26T10:43:37.049Z,24.91
2023-04-26T10:44:36.771Z,24.54
2023-04-26T10:45:36.869Z,24.28
2023-04-26T10:46:37.074Z,24.95
2023-04-26T10:47:36.925Z,24.47
2023-04-26T10:48:37.089Z,23.02
2023-04-26T10:49:36.949Z,22.80
2023-04-26T10:50:36.984Z,23.62
2023-04-26T10:51:37.061Z,23.83
2023-04-26T10:52:37.522Z,23.94
2023-04-26T10:53:37.084Z,23.91
2023-04-26T10:54:37.127Z,22.67
2023-04-26T10:55:37.182Z,22.57
2023-04-26T10:56:37.224Z,22.49
2023-04-26T10:57:37.535Z,23.58
2023-04-26T10:58:37.288Z,23.00
2023-04-26T10:59:51.297Z,22.32
2023-04-26T11:00:38.274Z,21.49
2023-04-26T11:01:37.295Z,23.18
2023-04-26T11:02:37.320Z,22.26
2023-04-26T11:03:37.716Z,23.09
2023-04-26T11:04:37.297Z,23.27
2023-04-26T11:05:37.237Z,23.64
2023-04-26T11:06:37.260Z,23.68
2023-04-26T11:07:37.260Z,24.05
2023-04-26T11:08:37.276Z,23.59
2023-04-26T11:09:37.213Z,23.37
2023-04-26T11:10:37.216Z,23.69
2023-04-26T11:11:37.208Z,23.51
2023-04-26T11:12:37.195Z,22.80
2023-04-26T11:13:37.235Z,24.06
2023-04-26T11:14:37.311Z,22.29
2023-04-26T11:15:37.361Z,22.42
2023-04-26T11:16:37.518Z,23.29
2023-04-26T11:17:37.438Z,24.18
2023-04-26T11:18:37.447Z,24.40
2023-04-26T11:19:37.590Z,23.68
2023-04-26T11:20:37.491Z,22.43
2023-04-26T11:21:37.554Z,22.38
2023-04-26T11:22:37.523Z,22.55
2023-04-26T11:23:37.576Z,21.68
2023-04-26T11:24:37.592Z,21.75
2023-04-26T11:25:37.634Z,21.14
2023-04-26T11:26:37.653Z,20.93
2023-04-26T11:27:37.676Z,20.37
2023-04-26T11:28:37.685Z,20.91
2023-04-26T11:29:37.756Z,20.62
2023-04-26T11:30:37.807Z,20.18
2023-04-26T11:31:37.861Z,20.03
2023-04-26T11:32:37.908Z,21.04
2023-04-26T11:33:37.926Z,21.53
2023-04-26T11:34:37.943Z,20.75
2023-04-26T11:35:37.954Z,21.41
2023-04-26T11:36:37.992Z,20.79
2023-04-26T11:37:38.069Z,21.36
2023-04-26T11:38:38.067Z,21.96
2023-04-26T11:39:38.146Z,22.42
2023-04-26T11:40:38.180Z,21.19
2023-04-26T11:41:38.169Z,21.44
2023-04-26T11:42:38.265Z,20.91
2023-04-26T11:43:38.351Z,21.73
2023-04-26T11:44:38.319Z,21.05
2023-04-26T11:45:38.339Z,20.62
2023-04-26T11:46:38.421Z,20.46
2023-04-26T11:47:38.488Z,20.69
2023-04-26T11:48:38.412Z,20.58
2023-04-26T11:49:38.483Z,19.97
2023-04-26T11:50:38.489Z,18.63
2023-04-26T11:51:38.560Z,18.11
2023-04-26T11:52:38.627Z,17.92
2023-04-26T11:53:38.706Z,17.53
2023-04-26T11:54:38.705Z,17.55
2023-04-26T11:55:38.694Z,17.64
2023-04-26T11:56:38.700Z,18.28
2023-04-26T11:57:38.742Z,18.33
2023-04-26T11:58:38.813Z,19.36
2023-04-26T11:59:38.779Z,17.67
2023-04-26T12:00:38.854Z,18.58
2023-04-26T12:01:38.873Z,18.66
2023-04-26T12:02:39.066Z,18.65
2023-04-26T12:03:39.193Z,19.21
2023-04-26T12:04:39.228Z,19.81
2023-04-26T12:05:39.106Z,19.18
2023-04-26T12:06:39.085Z,19.35
2023-04-26T12:07:39.075Z,19.17
2023-04-26T12:08:39.109Z,19.53
2023-04-26T12:09:39.205Z,18.80
2023-04-26T12:10:39.250Z,19.02
2023-04-26T12:11:39.280Z,20.01
2023-04-26T12:12:39.333Z,19.53
2023-04-26T12:13:39.351Z,19.23
2023-04-26T12:14:39.412Z,19.33
2023-04-26T12:15:39.428Z,18.67
2023-04-26T12:16:39.472Z,19.04
2023-04-26T12:17:39.472Z,18.98
2023-04-26T12:18:39.579Z,19.42
2023-04-26T12:19:39.529Z,19.20
2023-04-26T12:20:39.533Z,19.56
2023-04-26T12:21:39.578Z,19.62
2023-04-26T12:22:39.626Z,20.26
2023-04-26T12:23:39.674Z,20.47
2023-04-26T12:24:39.698Z,19.49
2023-04-26T12:25:39.772Z,19.22
2023-04-26T12:26:39.802Z,19.37
2023-04-26T12:27:39.858Z,19.48
2023-04-26T12:28:39.851Z,19.30
2023-04-26T12:29:39.893Z,18.60
2023-04-26T12:30:39.929Z,19.23
2023-04-26T12:31:39.927Z,18.52
2023-04-26T12:32:40.030Z,18.40
2023-04-26T12:33:40.017Z,18.03
2023-04-26T12:34:40.083Z,17.80
2023-04-26T12:35:40.041Z,18.32
2023-04-26T12:36:40.048Z,18.56
2023-04-26T12:37:40.082Z,18.57
2023-04-26T12:38:40.102Z,18.36
2023-04-26T12:39:40.113Z,18.73
2023-04-26T12:40:40.147Z,18.93
2023-04-26T12:41:40.165Z,18.55
2023-04-26T12:42:40.217Z,18.67
2023-04-26T12:43:40.219Z,19.13
2023-04-26T12:44:40.594Z,19.02
2023-04-26T12:45:40.356Z,19.13
2023-04-26T12:46:40.476Z,19.28
2023-04-26T12:47:40.383Z,19.67
2023-04-26T12:48:40.359Z,19.53
2023-04-26T12:49:40.379Z,19.09
2023-04-26T12:50:40.414Z,18.53
2023-04-26T12:51:40.418Z,18.75
2023-04-26T12:52:40.426Z,19.00